sensor_id;sensor_type;location;lat;lon;timestamp;pressure;altitude;pressure_sealevel;temperature;humidity
22743;BME280;11538;48.884;8.696;2023-03-16T00:02:10;99149.94;;;1.69;100.00
22743;BME280;11538;48.884;8.696;2023-03-16T00:04:37;99151.31;;;1.71;100.00
22743;BME280;11538;48.884;8.696;2023-03-16T00:07:08;99154.81;;;1.72;100.00
22743;BME280;11538;48.884;8.696;2023-03-16T00:09:39;99155.50;;;1.67;100.00
22743;BME280;11538;48.884;8.696;2023-03-16T00:12:18;99155.97;;;1.52;100.00
22743;BME280;11538;48.884;8.696;2023-03-16T00:14:47;99145.59;;;1.56;100.00
22743;BME280;11538;48.884;8.696;2023-03-16T00:17:18;99158.19;;;1.55;100.00
22743;BME280;11538;48.884;8.696;2023-03-16T00:20:15;99157.59;;;1.65;100.00
22743;BME280;11538;48.884;8.696;2023-03-16T00:22:43;99153.06;;;1.66;100.00
22743;BME280;11538;48.884;8.696;2023-03-16T00:25:13;99156.31;;;1.68;100.00
22743;BME280;11538;48.884;8.696;2023-03-16T00:27:40;99155.63;;;1.72;100.00
22743;BME280;11538;48.884;8.696;2023-03-16T00:30:08;99158.88;;;1.74;100.00
22743;BME280;11538;48.884;8.696;2023-03-16T00:32:36;99157.50;;;1.72;100.00
22743;BME280;11538;48.884;8.696;2023-03-16T00:35:05;99156.91;;;1.70;100.00
22743;BME280;11538;48.884;8.696;2023-03-16T00:37:35;99163.50;;;1.67;100.00
22743;BME280;11538;48.884;8.696;2023-03-16T00:40:04;99162.72;;;1.67;100.00
22743;BME280;11538;48.884;8.696;2023-03-16T00:42:33;99163.97;;;1.64;100.00
22743;BME280;11538;48.884;8.696;2023-03-16T00:45:00;99151.44;;;1.65;100.00
22743;BME280;11538;48.884;8.696;2023-03-16T00:47:32;99144.47;;;1.64;100.00
22743;BME280;11538;48.884;8.696;2023-03-16T00:50:01;99144.47;;;1.64;100.00
22743;BME280;11538;48.884;8.696;2023-03-16T00:52:28;99141.22;;;1.62;100.00
22743;BME280;11538;48.884;8.696;2023-03-16T00:54:55;99131.78;;;1.59;100.00
22743;BME280;11538;48.884;8.696;2023-03-16T00:57:24;99139.22;;;1.57;100.00
22743;BME280;11538;48.884;8.696;2023-03-16T00:59:51;99138.16;;;1.58;100.00
22743;BME280;11538;48.884;8.696;2023-03-16T01:02:19;99134.31;;;1.54;100.00
22743;BME280;11538;48.884;8.696;2023-03-16T01:04:50;99145.97;;;1.59;100.00
22743;BME280;11538;48.884;8.696;2023-03-16T01:07:18;99139.47;;;1.55;100.00
22743;BME280;11538;48.884;8.696;2023-03-16T01:09:45;99147.56;;;1.49;100.00
22743;BME280;11538;48.884;8.696;2023-03-16T01:12:17;99131.78;;;1.47;100.00
22743;BME280;11538;48.884;8.696;2023-03-16T01:14:45;99132.00;;;1.45;100.00
22743;BME280;11538;48.884;8.696;2023-03-16T01:17:14;99123.31;;;1.50;100.00
22743;BME280;11538;48.884;8.696;2023-03-16T01:19:42;99122.25;;;1.51;100.00
22743;BME280;11538;48.884;8.696;2023-03-16T01:22:10;99130.03;;;1.53;100.00
22743;BME280;11538;48.884;8.696;2023-03-16T01:24:38;99126.31;;;1.54;100.00
22743;BME280;11538;48.884;8.696;2023-03-16T01:27:07;99125.25;;;1.55;100.00
22743;BME280;11538;48.884;8.696;2023-03-16T01:29:35;99117.03;;;1.56;100.00
22743;BME280;11538;48.884;8.696;2023-03-16T01:32:06;99130.63;;;1.55;100.00
22743;BME280;11538;48.884;8.696;2023-03-16T01:34:33;99123.31;;;1.50;100.00
22743;BME280;11538;48.884;8.696;2023-03-16T01:37:00;99124.56;;;1.48;100.00
22743;BME280;11538;48.884;8.696;2023-03-16T01:39:27;99124.81;;;1.46;100.00
22743;BME280;11538;48.884;8.696;2023-03-16T01:41:54;99118.75;;;1.39;100.00
22743;BME280;11538;48.884;8.696;2023-03-16T01:44:26;99129.00;;;1.42;100.00
22743;BME280;11538;48.884;8.696;2023-03-16T01:46:58;99114.22;;;1.39;100.00
22743;BME280;11538;48.884;8.696;2023-03-16T01:49:33;99108.66;;;1.41;100.00
22743;BME280;11538;48.884;8.696;2023-03-16T01:52:09;99111.91;;;1.43;100.00
22743;BME280;11538;48.884;8.696;2023-03-16T01:54:47;99104.34;;;1.40;100.00
22743;BME280;11538;48.884;8.696;2023-03-16T01:57:20;99090.97;;;1.40;100.00
22743;BME280;11538;48.884;8.696;2023-03-16T01:59:52;99085.84;;;1.38;100.00
22743;BME280;11538;48.884;8.696;2023-03-16T02:02:23;99088.19;;;1.35;100.00
22743;BME280;11538;48.884;8.696;2023-03-16T02:05:30;99095.00;;;1.30;100.00
22743;BME280;11538;48.884;8.696;2023-03-16T02:08:00;99094.19;;;1.18;100.00
22743;BME280;11538;48.884;8.696;2023-03-16T02:10:29;99099.41;;;1.01;100.00
22743;BME280;11538;48.884;8.696;2023-03-16T02:12:57;99099.34;;;0.89;100.00
22743;BME280;11538;48.884;8.696;2023-03-16T02:15:24;99108.28;;;0.83;100.00
22743;BME280;11538;48.884;8.696;2023-03-16T02:17:56;99097.59;;;0.83;100.00
22743;BME280;11538;48.884;8.696;2023-03-16T02:20:50;99100.13;;;0.78;100.00
22743;BME280;11538;48.884;8.696;2023-03-16T02:23:22;99107.69;;;0.81;100.00
22743;BME280;11538;48.884;8.696;2023-03-16T02:29:28;99095.84;;;0.77;100.00
22743;BME280;11538;48.884;8.696;2023-03-16T02:32:01;99087.81;;;0.77;100.00
22743;BME280;11538;48.884;8.696;2023-03-16T02:34:28;99097.28;;;0.91;100.00
22743;BME280;11538;48.884;8.696;2023-03-16T02:36:57;99088.34;;;0.85;100.00
22743;BME280;11538;48.884;8.696;2023-03-16T02:39:24;99077.16;;;0.77;100.00
22743;BME280;11538;48.884;8.696;2023-03-16T02:41:52;99075.88;;;0.79;100.00
22743;BME280;11538;48.884;8.696;2023-03-16T02:44:36;99070.69;;;0.84;100.00
22743;BME280;11538;48.884;8.696;2023-03-16T02:47:11;99074.47;;;0.77;100.00
22743;BME280;11538;48.884;8.696;2023-03-16T02:49:43;99063.66;;;0.71;100.00
22743;BME280;11538;48.884;8.696;2023-03-16T02:52:11;99061.44;;;0.68;100.00
22743;BME280;11538;48.884;8.696;2023-03-16T02:54:38;99064.97;;;0.50;100.00
22743;BME280;11538;48.884;8.696;2023-03-16T02:57:06;99050.97;;;0.55;100.00
22743;BME280;11538;48.884;8.696;2023-03-16T02:59:33;99050.59;;;0.51;100.00
22743;BME280;11538;48.884;8.696;2023-03-16T03:02:00;99056.69;;;0.40;100.00
22743;BME280;11538;48.884;8.696;2023-03-16T03:04:27;99058.38;;;0.53;100.00
22743;BME280;11538;48.884;8.696;2023-03-16T03:06:54;99064.66;;;0.58;100.00
22743;BME280;11538;48.884;8.696;2023-03-16T03:09:21;99064.03;;;0.75;100.00
22743;BME280;11538;48.884;8.696;2023-03-16T03:11:47;99058.47;;;0.77;100.00
22743;BME280;11538;48.884;8.696;2023-03-16T03:14:16;99052.66;;;0.80;100.00
22743;BME280;11538;48.884;8.696;2023-03-16T03:16:42;99052.19;;;0.71;100.00
22743;BME280;11538;48.884;8.696;2023-03-16T03:19:12;99050.41;;;0.65;100.00
22743;BME280;11538;48.884;8.696;2023-03-16T03:21:40;99037.88;;;0.65;100.00
22743;BME280;11538;48.884;8.696;2023-03-16T03:24:08;99043.44;;;0.64;100.00
22743;BME280;11538;48.884;8.696;2023-03-16T03:26:35;99037.88;;;0.65;100.00
22743;BME280;11538;48.884;8.696;2023-03-16T03:29:05;99039.41;;;0.73;100.00
22743;BME280;11538;48.884;8.696;2023-03-16T03:31:32;99036.28;;;0.76;100.00
22743;BME280;11538;48.884;8.696;2023-03-16T03:33:59;99024.56;;;0.89;100.00
22743;BME280;11538;48.884;8.696;2023-03-16T03:36:33;99029.13;;;1.00;100.00
22743;BME280;11538;48.884;8.696;2023-03-16T03:39:01;99030.66;;;1.08;100.00
22743;BME280;11538;48.884;8.696;2023-03-16T03:41:31;99021.94;;;1.01;100.00
22743;BME280;11538;48.884;8.696;2023-03-16T03:43:59;99012.38;;;0.93;100.00
22743;BME280;11538;48.884;8.696;2023-03-16T03:46:26;99022.63;;;0.96;100.00
22743;BME280;11538;48.884;8.696;2023-03-16T03:48:53;99020.63;;;1.04;100.00
22743;BME280;11538;48.884;8.696;2023-03-16T03:51:20;99027.50;;;0.99;100.00
22743;BME280;11538;48.884;8.696;2023-03-16T03:53:47;99025.66;;;1.00;100.00
22743;BME280;11538;48.884;8.696;2023-03-16T03:56:14;99027.38;;;0.94;100.00
22743;BME280;11538;48.884;8.696;2023-03-16T03:58:41;99027.63;;;0.93;100.00
22743;BME280;11538;48.884;8.696;2023-03-16T04:01:07;99022.50;;;0.91;100.00
22743;BME280;11538;48.884;8.696;2023-03-16T04:03:34;99014.94;;;0.88;100.00
22743;BME280;11538;48.884;8.696;2023-03-16T04:06:01;99016.69;;;0.82;100.00
22743;BME280;11538;48.884;8.696;2023-03-16T04:08:28;99016.91;;;0.81;100.00
22743;BME280;11538;48.884;8.696;2023-03-16T04:10:55;99016.31;;;0.79;100.00
22743;BME280;11538;48.884;8.696;2023-03-16T04:13:22;99012.00;;;0.78;100.00
22743;BME280;11538;48.884;8.696;2023-03-16T04:15:55;99016.44;;;0.72;100.00
22743;BME280;11538;48.884;8.696;2023-03-16T04:18:22;99011.44;;;0.76;100.00
22743;BME280;11538;48.884;8.696;2023-03-16T04:20:50;99019.69;;;0.74;100.00
22743;BME280;11538;48.884;8.696;2023-03-16T04:23:20;99021.06;;;0.77;100.00
22743;BME280;11538;48.884;8.696;2023-03-16T04:25:47;99016.31;;;0.79;100.00
22743;BME280;11538;48.884;8.696;2023-03-16T04:28:14;99006.00;;;0.82;100.00
22743;BME280;11538;48.884;8.696;2023-03-16T04:30:43;99002.75;;;0.80;100.00
22743;BME280;11538;48.884;8.696;2023-03-16T04:33:10;99003.09;;;0.84;100.00
22743;BME280;11538;48.884;8.696;2023-03-16T04:35:37;99003.00;;;0.91;100.00
22743;BME280;11538;48.884;8.696;2023-03-16T04:38:04;99000.31;;;0.91;100.00
22743;BME280;11538;48.884;8.696;2023-03-16T04:40:31;98997.66;;;0.91;100.00
22743;BME280;11538;48.884;8.696;2023-03-16T04:42:58;98997.53;;;0.97;100.00
22743;BME280;11538;48.884;8.696;2023-03-16T04:45:25;98999.38;;;1.09;100.00
22743;BME280;11538;48.884;8.696;2023-03-16T04:47:52;99003.69;;;1.10;100.00
22743;BME280;11538;48.884;8.696;2023-03-16T04:50:19;98989.75;;;1.08;100.00
22743;BME280;11538;48.884;8.696;2023-03-16T04:52:47;98992.88;;;1.05;100.00
22743;BME280;11538;48.884;8.696;2023-03-16T04:55:14;98993.47;;;1.07;100.00
22743;BME280;11538;48.884;8.696;2023-03-16T04:57:41;98995.22;;;1.01;100.00
22743;BME280;11538;48.884;8.696;2023-03-16T05:00:09;98994.97;;;1.02;100.00
22743;BME280;11538;48.884;8.696;2023-03-16T05:02:46;98995.22;;;1.13;100.00
22743;BME280;11538;48.884;8.696;2023-03-16T05:05:14;98990.09;;;1.23;100.00
22743;BME280;11538;48.884;8.696;2023-03-16T05:07:42;98990.44;;;1.27;100.00
22743;BME280;11538;48.884;8.696;2023-03-16T05:10:14;98999.16;;;1.34;100.00
22743;BME280;11538;48.884;8.696;2023-03-16T05:12:41;98995.44;;;1.35;100.00
22743;BME280;11538;48.884;8.696;2023-03-16T05:15:09;99000.78;;;1.35;100.00
22743;BME280;11538;48.884;8.696;2023-03-16T05:17:36;99001.03;;;1.34;100.00
22743;BME280;11538;48.884;8.696;2023-03-16T05:20:04;98993.59;;;1.36;100.00
22743;BME280;11538;48.884;8.696;2023-03-16T05:22:34;98989.75;;;1.31;100.00
22743;BME280;11538;48.884;8.696;2023-03-16T05:25:01;98990.09;;;1.35;100.00
22743;BME280;11538;48.884;8.696;2023-03-16T05:27:30;98995.69;;;1.34;100.00
22743;BME280;11538;48.884;8.696;2023-03-16T05:29:57;98993.25;;;1.32;100.00
22743;BME280;11538;48.884;8.696;2023-03-16T05:32:23;98989.16;;;1.29;100.00
22743;BME280;11538;48.884;8.696;2023-03-16T05:34:50;98984.06;;;1.28;100.00
22743;BME280;11538;48.884;8.696;2023-03-16T05:37:19;98986.72;;;1.28;100.00
22743;BME280;11538;48.884;8.696;2023-03-16T05:39:46;98981.97;;;1.30;100.00
22743;BME280;11538;48.884;8.696;2023-03-16T05:42:13;98979.41;;;1.35;100.00
22743;BME280;11538;48.884;8.696;2023-03-16T05:44:40;98983.00;;;1.29;100.00
22743;BME280;11538;48.884;8.696;2023-03-16T05:47:07;98984.53;;;1.25;100.00
22743;BME280;11538;48.884;8.696;2023-03-16T05:49:34;98981.03;;;1.24;100.00
22743;BME280;11538;48.884;8.696;2023-03-16T05:52:00;98980.09;;;1.30;100.00
22743;BME280;11538;48.884;8.696;2023-03-16T05:54:28;98971.50;;;1.28;100.00
22743;BME280;11538;48.884;8.696;2023-03-16T05:56:54;98975.34;;;1.33;100.00
22743;BME280;11538;48.884;8.696;2023-03-16T05:59:21;98972.22;;;1.36;100.00
22743;BME280;11538;48.884;8.696;2023-03-16T06:01:48;98972.44;;;1.34;100.00
22743;BME280;11538;48.884;8.696;2023-03-16T06:04:15;98970.22;;;1.31;100.00
22743;BME280;11538;48.884;8.696;2023-03-16T06:06:43;98971.03;;;1.31;100.00
22743;BME280;11538;48.884;8.696;2023-03-16T06:09:09;98976.63;;;1.30;100.00
22743;BME280;11538;48.884;8.696;2023-03-16T06:11:36;98974.31;;;1.34;100.00
22743;BME280;11538;48.884;8.696;2023-03-16T06:14:03;98971.50;;;1.28;100.00
22743;BME280;11538;48.884;8.696;2023-03-16T06:16:30;98976.72;;;1.23;100.00
22743;BME280;11538;48.884;8.696;2023-03-16T06:18:57;98974.41;;;1.27;100.00
22743;BME280;11538;48.884;8.696;2023-03-16T06:21:25;98980.34;;;1.29;100.00
22743;BME280;11538;48.884;8.696;2023-03-16T06:23:52;98981.72;;;1.31;100.00
22743;BME280;11538;48.884;8.696;2023-03-16T06:26:20;98983.72;;;1.36;100.00
22743;BME280;11538;48.884;8.696;2023-03-16T06:28:47;98980.91;;;1.31;100.00
22743;BME280;11538;48.884;8.696;2023-03-16T06:31:20;98972.69;;;1.33;100.00
22743;BME280;11538;48.884;8.696;2023-03-16T06:33:47;98978.72;;;1.40;100.00
22743;BME280;11538;48.884;8.696;2023-03-16T06:36:14;98980.66;;;1.44;100.00
22743;BME280;11538;48.884;8.696;2023-03-16T06:38:41;98977.16;;;1.56;100.00
22743;BME280;11538;48.884;8.696;2023-03-16T06:41:08;98983.78;;;1.65;100.00
22743;BME280;11538;48.884;8.696;2023-03-16T06:43:35;98978.53;;;1.70;100.00
22743;BME280;11538;48.884;8.696;2023-03-16T06:46:03;98975.06;;;1.70;100.00
22743;BME280;11538;48.884;8.696;2023-03-16T06:48:30;98976.91;;;1.69;100.00
22743;BME280;11538;48.884;8.696;2023-03-16T06:50:57;98979.56;;;1.69;100.00
22743;BME280;11538;48.884;8.696;2023-03-16T06:53:24;98986.81;;;1.69;100.00
22743;BME280;11538;48.884;8.696;2023-03-16T06:55:50;98973.63;;;1.79;100.00
22743;BME280;11538;48.884;8.696;2023-03-16T06:58:17;98972.09;;;1.83;100.00
22743;BME280;11538;48.884;8.696;2023-03-16T07:00:44;98974.88;;;1.88;100.00
22743;BME280;11538;48.884;8.696;2023-03-16T07:03:11;98971.47;;;1.93;100.00
22743;BME280;11538;48.884;8.696;2023-03-16T07:05:39;98977.84;;;2.04;100.00
22743;BME280;11538;48.884;8.696;2023-03-16T07:08:06;98977.47;;;2.12;100.00
22743;BME280;11538;48.884;8.696;2023-03-16T07:10:36;98977.00;;;2.15;100.00
22743;BME280;11538;48.884;8.696;2023-03-16T07:13:03;98969.53;;;2.17;100.00
22743;BME280;11538;48.884;8.696;2023-03-16T07:15:30;98979.44;;;2.17;100.00
22743;BME280;11538;48.884;8.696;2023-03-16T07:17:57;98974.41;;;2.21;100.00
22743;BME280;11538;48.884;8.696;2023-03-16T07:20:24;98976.69;;;2.29;100.00
22743;BME280;11538;48.884;8.696;2023-03-16T07:22:52;98977.63;;;2.34;100.00
22743;BME280;11538;48.884;8.696;2023-03-16T07:25:19;98986.06;;;2.43;100.00
22743;BME280;11538;48.884;8.696;2023-03-16T07:27:49;98985.91;;;2.50;100.00
22743;BME280;11538;48.884;8.696;2023-03-16T07:30:17;98984.13;;;2.56;100.00
22743;BME280;11538;48.884;8.696;2023-03-16T07:32:44;98979.41;;;2.63;100.00
22743;BME280;11538;48.884;8.696;2023-03-16T07:35:11;98983.66;;;2.76;100.00
22743;BME280;11538;48.884;8.696;2023-03-16T07:37:39;98977.41;;;2.87;100.00
22743;BME280;11538;48.884;8.696;2023-03-16T07:40:07;98974.56;;;2.94;100.00
22743;BME280;11538;48.884;8.696;2023-03-16T07:42:35;98978.47;;;3.03;100.00
22743;BME280;11538;48.884;8.696;2023-03-16T07:45:04;98972.91;;;3.10;100.00
22743;BME280;11538;48.884;8.696;2023-03-16T07:47:31;98990.47;;;3.18;100.00
22743;BME280;11538;48.884;8.696;2023-03-16T07:49:59;98982.25;;;3.25;100.00
22743;BME280;11538;48.884;8.696;2023-03-16T07:52:27;98987.22;;;3.33;100.00
22743;BME280;11538;48.884;8.696;2023-03-16T07:54:54;98990.31;;;3.47;100.00
22743;BME280;11538;48.884;8.696;2023-03-16T07:57:21;98989.72;;;3.62;100.00
22743;BME280;11538;48.884;8.696;2023-03-16T07:59:48;98983.00;;;3.82;100.00
22743;BME280;11538;48.884;8.696;2023-03-16T08:02:18;98986.41;;;3.99;100.00
22743;BME280;11538;48.884;8.696;2023-03-16T08:04:46;98987.41;;;4.15;100.00
22743;BME280;11538;48.884;8.696;2023-03-16T08:07:14;98985.69;;;4.31;100.00
22743;BME280;11538;48.884;8.696;2023-03-16T08:09:42;98978.38;;;4.54;100.00
22743;BME280;11538;48.884;8.696;2023-03-16T08:12:10;98979.63;;;4.74;100.00
22743;BME280;11538;48.884;8.696;2023-03-16T08:14:37;98976.84;;;4.96;100.00
22743;BME280;11538;48.884;8.696;2023-03-16T08:17:05;98975.31;;;5.10;100.00
22743;BME280;11538;48.884;8.696;2023-03-16T08:19:35;98970.25;;;5.14;100.00
22743;BME280;11538;48.884;8.696;2023-03-16T08:22:02;98960.09;;;5.26;100.00
22743;BME280;11538;48.884;8.696;2023-03-16T08:24:31;98959.44;;;5.52;99.50
22743;BME280;11538;48.884;8.696;2023-03-16T08:26:59;98952.00;;;5.75;97.71
22743;BME280;11538;48.884;8.696;2023-03-16T08:29:26;98949.13;;;5.97;95.10
22743;BME280;11538;48.884;8.696;2023-03-16T08:32:00;98944.91;;;6.22;93.57
22743;BME280;11538;48.884;8.696;2023-03-16T08:34:27;98953.53;;;6.44;92.01
22743;BME280;11538;48.884;8.696;2023-03-16T08:36:54;98953.25;;;6.62;87.33
22743;BME280;11538;48.884;8.696;2023-03-16T08:39:21;98952.22;;;6.73;86.56
22743;BME280;11538;48.884;8.696;2023-03-16T08:41:48;98961.09;;;6.79;85.16
22743;BME280;11538;48.884;8.696;2023-03-16T08:44:15;98967.84;;;6.86;85.11
22743;BME280;11538;48.884;8.696;2023-03-16T08:46:45;98970.78;;;6.95;84.23
22743;BME280;11538;48.884;8.696;2023-03-16T08:49:12;98961.34;;;7.13;82.61
22743;BME280;11538;48.884;8.696;2023-03-16T08:51:41;98960.69;;;7.53;84.98
22743;BME280;11538;48.884;8.696;2023-03-16T08:54:10;98953.09;;;7.65;79.53
22743;BME280;11538;48.884;8.696;2023-03-16T08:56:38;98953.09;;;7.65;78.27
22743;BME280;11538;48.884;8.696;2023-03-16T08:59:04;98952.22;;;7.85;77.00
22743;BME280;11538;48.884;8.696;2023-03-16T09:01:32;98946.81;;;7.85;75.53
22743;BME280;11538;48.884;8.696;2023-03-16T09:04:00;98955.34;;;8.08;74.89
22743;BME280;11538;48.884;8.696;2023-03-16T09:06:26;98967.47;;;8.16;72.50
22743;BME280;11538;48.884;8.696;2023-03-16T09:08:54;98959.75;;;8.39;71.78
22743;BME280;11538;48.884;8.696;2023-03-16T09:11:22;98965.66;;;8.51;71.78
22743;BME280;11538;48.884;8.696;2023-03-16T09:13:49;98952.88;;;8.62;71.33
22743;BME280;11538;48.884;8.696;2023-03-16T09:16:19;98951.16;;;8.71;69.89
22743;BME280;11538;48.884;8.696;2023-03-16T09:18:46;98941.72;;;8.69;68.45
22743;BME280;11538;48.884;8.696;2023-03-16T09:21:13;98948.50;;;8.96;71.29
22743;BME280;11538;48.884;8.696;2023-03-16T09:23:40;98947.97;;;9.23;68.87
22743;BME280;11538;48.884;8.696;2023-03-16T09:26:09;98944.75;;;9.21;67.30
22743;BME280;11538;48.884;8.696;2023-03-16T09:28:39;98935.69;;;9.06;67.00
22743;BME280;11538;48.884;8.696;2023-03-16T09:31:14;98929.34;;;8.92;67.42
22743;BME280;11538;48.884;8.696;2023-03-16T09:33:42;98936.75;;;8.81;67.74
22743;BME280;11538;48.884;8.696;2023-03-16T09:36:09;98941.41;;;8.75;67.49
22743;BME280;11538;48.884;8.696;2023-03-16T09:38:40;98932.78;;;8.98;67.02
22743;BME280;11538;48.884;8.696;2023-03-16T09:41:31;98937.47;;;9.16;65.24
22743;BME280;11538;48.884;8.696;2023-03-16T09:44:20;98939.16;;;9.12;65.88
22743;BME280;11538;48.884;8.696;2023-03-16T09:46:50;98941.38;;;9.34;64.58
22743;BME280;11538;48.884;8.696;2023-03-16T09:49:33;98941.31;;;9.64;67.43
22743;BME280;11538;48.884;8.696;2023-03-16T09:52:24;98935.06;;;9.88;65.85
22743;BME280;11538;48.884;8.696;2023-03-16T09:55:06;98938.44;;;9.99;62.61
22743;BME280;11538;48.884;8.696;2023-03-16T09:57:38;98944.31;;;10.06;63.55
22743;BME280;11538;48.884;8.696;2023-03-16T10:00:37;98936.53;;;10.18;62.01
22743;BME280;11538;48.884;8.696;2023-03-16T10:06:00;98931.03;;;10.23;61.75
22743;BME280;11538;48.884;8.696;2023-03-16T10:08:42;98929.78;;;10.35;63.27
22743;BME280;11538;48.884;8.696;2023-03-16T10:11:31;98926.63;;;10.47;60.62
22743;BME280;11538;48.884;8.696;2023-03-16T10:14:46;98917.81;;;10.55;60.98
22743;BME280;11538;48.884;8.696;2023-03-16T10:20:12;98908.97;;;10.82;61.39
22743;BME280;11538;48.884;8.696;2023-03-16T10:22:46;98912.25;;;11.12;61.39
22743;BME280;11538;48.884;8.696;2023-03-16T10:25:38;98903.41;;;11.07;57.30
22743;BME280;11538;48.884;8.696;2023-03-16T10:28:22;98905.31;;;11.20;58.70
22743;BME280;11538;48.884;8.696;2023-03-16T10:30:54;98902.72;;;11.57;58.59
22743;BME280;11538;48.884;8.696;2023-03-16T10:33:24;98911.75;;;11.66;55.66
22743;BME280;11538;48.884;8.696;2023-03-16T10:38:58;98887.56;;;11.79;54.88
22743;BME280;11538;48.884;8.696;2023-03-16T10:41:44;98879.56;;;12.10;53.76
22743;BME280;11538;48.884;8.696;2023-03-16T10:44:13;98885.50;;;12.12;50.62
22743;BME280;11538;48.884;8.696;2023-03-16T10:46:58;98892.97;;;12.07;49.27
22743;BME280;11538;48.884;8.696;2023-03-16T10:49:43;98886.34;;;11.99;50.00
22743;BME280;11538;48.884;8.696;2023-03-16T10:52:43;98887.72;;;12.10;52.99
22743;BME280;11538;48.884;8.696;2023-03-16T10:55:21;98891.50;;;12.46;48.62
22743;BME280;11538;48.884;8.696;2023-03-16T10:57:52;98903.03;;;12.66;49.84
22743;BME280;11538;48.884;8.696;2023-03-16T11:00:28;98894.47;;;12.81;48.37
22743;BME280;11538;48.884;8.696;2023-03-16T11:02:58;98902.69;;;13.30;53.11
22743;BME280;11538;48.884;8.696;2023-03-16T11:05:33;98904.69;;;13.07;47.12
22743;BME280;11538;48.884;8.696;2023-03-16T11:08:30;98898.91;;;13.09;48.19
22743;BME280;11538;48.884;8.696;2023-03-16T11:11:22;98882.63;;;13.67;48.31
22743;BME280;11538;48.884;8.696;2023-03-16T11:13:58;98889.88;;;13.98;49.69
22743;BME280;11538;48.884;8.696;2023-03-16T11:16:52;98884.75;;;14.23;44.84
22743;BME280;11538;48.884;8.696;2023-03-16T11:19:35;98882.50;;;14.25;43.23
22743;BME280;11538;48.884;8.696;2023-03-16T11:22:22;98874.13;;;14.47;42.20
22743;BME280;11538;48.884;8.696;2023-03-16T11:27:36;98859.53;;;14.61;41.33
22743;BME280;11538;48.884;8.696;2023-03-16T11:30:29;98857.34;;;15.32;41.03
22743;BME280;11538;48.884;8.696;2023-03-16T11:33:00;98849.06;;;16.01;39.14
22743;BME280;11538;48.884;8.696;2023-03-16T11:35:51;98832.81;;;16.50;38.13
22743;BME280;11538;48.884;8.696;2023-03-16T11:38:42;98839.56;;;16.19;37.12
22743;BME280;11538;48.884;8.696;2023-03-16T11:41:21;98841.84;;;15.45;37.82
22743;BME280;11538;48.884;8.696;2023-03-16T11:43:54;98840.13;;;15.01;37.96
22743;BME280;11538;48.884;8.696;2023-03-16T11:46:30;98838.47;;;15.09;39.32
22743;BME280;11538;48.884;8.696;2023-03-16T11:51:54;98839.44;;;14.74;39.79
22743;BME280;11538;48.884;8.696;2023-03-16T11:54:50;98845.72;;;15.05;38.24
22743;BME280;11538;48.884;8.696;2023-03-16T12:03:43;98818.47;;;16.66;34.78
22743;BME280;11538;48.884;8.696;2023-03-16T12:06:39;98808.03;;;16.47;34.70
22743;BME280;11538;48.884;8.696;2023-03-16T12:12:28;98815.34;;;15.37;35.37
22743;BME280;11538;48.884;8.696;2023-03-16T12:15:34;98814.31;;;15.50;34.26
22743;BME280;11538;48.884;8.696;2023-03-16T12:21:40;98811.63;;;17.72;31.41
22743;BME280;11538;48.884;8.696;2023-03-16T12:24:17;98806.75;;;18.66;29.92
22743;BME280;11538;48.884;8.696;2023-03-16T12:26:46;98807.25;;;19.36;29.42
22743;BME280;11538;48.884;8.696;2023-03-16T12:32:22;98803.25;;;19.69;27.15
22743;BME280;11538;48.884;8.696;2023-03-16T12:38:17;98796.38;;;18.76;27.21
22743;BME280;11538;48.884;8.696;2023-03-16T12:40:54;98787.94;;;18.36;27.40
22743;BME280;11538;48.884;8.696;2023-03-16T12:43:50;98779.72;;;18.08;27.55
22743;BME280;11538;48.884;8.696;2023-03-16T12:49:14;98780.72;;;18.16;27.32
22743;BME280;11538;48.884;8.696;2023-03-16T12:51:42;98777.28;;;19.31;26.91
22743;BME280;11538;48.884;8.696;2023-03-16T12:54:24;98768.34;;;19.73;26.28
22743;BME280;11538;48.884;8.696;2023-03-16T12:57:05;98765.75;;;19.81;26.12
22743;BME280;11538;48.884;8.696;2023-03-16T12:59:44;98773.22;;;19.61;25.82
22743;BME280;11538;48.884;8.696;2023-03-16T13:02:23;98770.38;;;19.77;25.94
22743;BME280;11538;48.884;8.696;2023-03-16T13:05:11;98757.63;;;19.68;25.76
22743;BME280;11538;48.884;8.696;2023-03-16T13:07:51;98769.28;;;19.97;26.67
22743;BME280;11538;48.884;8.696;2023-03-16T13:10:29;98776.25;;;19.55;25.58
22743;BME280;11538;48.884;8.696;2023-03-16T13:13:11;98761.91;;;19.66;26.10
22743;BME280;11538;48.884;8.696;2023-03-16T13:15:41;98763.00;;;19.61;26.51
22743;BME280;11538;48.884;8.696;2023-03-16T13:20:55;98747.94;;;20.14;26.60
22743;BME280;11538;48.884;8.696;2023-03-16T13:23:46;98755.56;;;20.44;26.15
22743;BME280;11538;48.884;8.696;2023-03-16T13:26:32;98745.16;;;20.80;25.09
22743;BME280;11538;48.884;8.696;2023-03-16T13:29:26;98735.56;;;20.74;25.51
22743;BME280;11538;48.884;8.696;2023-03-16T13:31:59;98733.31;;;20.56;26.26
22743;BME280;11538;48.884;8.696;2023-03-16T13:34:32;98725.78;;;20.30;26.43
22743;BME280;11538;48.884;8.696;2023-03-16T13:37:00;98727.59;;;19.99;27.05
22743;BME280;11538;48.884;8.696;2023-03-16T13:39:30;98726.47;;;20.46;26.25
22743;BME280;11538;48.884;8.696;2023-03-16T13:42:20;98719.44;;;20.49;26.65
22743;BME280;11538;48.884;8.696;2023-03-16T13:44:52;98714.84;;;20.34;26.49
22743;BME280;11538;48.884;8.696;2023-03-16T13:47:20;98709.09;;;20.19;26.47
22743;BME280;11538;48.884;8.696;2023-03-16T13:49:53;98706.50;;;20.53;26.34
22743;BME280;11538;48.884;8.696;2023-03-16T13:52:30;98707.03;;;19.93;26.44
22743;BME280;11538;48.884;8.696;2023-03-16T13:55:13;98710.41;;;19.66;26.61
22743;BME280;11538;48.884;8.696;2023-03-16T13:57:43;98718.53;;;19.59;27.47
22743;BME280;11538;48.884;8.696;2023-03-16T14:00:21;98699.72;;;20.24;26.69
22743;BME280;11538;48.884;8.696;2023-03-16T14:02:55;98701.72;;;20.50;26.50
22743;BME280;11538;48.884;8.696;2023-03-16T14:05:31;98694.19;;;20.70;26.63
22743;BME280;11538;48.884;8.696;2023-03-16T14:07:58;98684.47;;;20.30;27.27
22743;BME280;11538;48.884;8.696;2023-03-16T14:10:34;98682.19;;;19.69;28.50